»·PEaware :: ASA1913 KONT-KLAS

ASA1913 :: KONT-KLAS

FLIGHT INFORMATION

Flight Status: Arrived
Operator:
Alaska Airlines
More flights by this operator :: More flights under this callsign
Pilot: Anonymous 25514 (25514)
Aircraft: AIRBUS A319
(A319)
More flights by this aircraft type
Origin: KONT Ontario Intl
United States
Destination: KLAS McCarran Intl
United States
More flights between these airports :: More routes between these airports
Route: +SNSHN3 MISEN KEPEC6
File this flight plan on PilotEdge
Remarks:
Altitude:
(Current/Filed)
28,000ft
Speed:
(Current/Filed)
280kts
Departed: 18-Jul-19 01:22 PM
Arrived: 18-Jul-19 02:06 PM
Distance/Time
Traveled:
171nm/0:44
Distance/Time
To Go:
Arrived

Flight Plot

Page will automatically refresh every two minutes.

Flight plan parsing failed; only flown route is shown


Map Options




Map Legend


Flown Route
Filed Route
Departure Airport
Arrival Airport
Navaid (VOR, NDB)
Fix

Horizontal Profiles

Position Reports

Time Latitude Longitude Heading Altitude Ground
Speed
18-Jul-19 12:55 34.059756 -117.587207 0 943ft 0kts
18-Jul-19 12:57 34.059756 -117.587207 0 943ft 0kts
18-Jul-19 12:57 34.059756 -117.587207 0 943ft 0kts
18-Jul-19 12:58 34.059756 -117.587207 0 943ft 0kts
18-Jul-19 12:59 34.059756 -117.587207 0 943ft 0kts
18-Jul-19 13:00 34.059756 -117.587207 0 943ft 0kts
18-Jul-19 13:01 34.059756 -117.587207 0 943ft 0kts
18-Jul-19 13:02 34.059756 -117.587207 0 943ft 0kts
18-Jul-19 13:03 34.059756 -117.587207 0 943ft 0kts
18-Jul-19 13:04 34.059756 -117.587207 0 943ft 0kts
18-Jul-19 13:05 34.059756 -117.587207 0 943ft 0kts
18-Jul-19 13:06 34.059756 -117.587207 0 943ft 0kts
18-Jul-19 13:07 34.059756 -117.587207 0 943ft 0kts
18-Jul-19 13:08 34.059756 -117.587207 0 943ft 0kts
18-Jul-19 13:09 34.059756 -117.587207 0 943ft 0kts
18-Jul-19 13:10 34.059756 -117.587207 0 943ft 0kts
18-Jul-19 13:11 34.059755 -117.587207 0 943ft 0kts
18-Jul-19 13:12 34.059552 -117.587210 0 943ft 2kts
18-Jul-19 13:13 34.059053 -117.587546 65 942ft 2kts
18-Jul-19 13:14 34.059004 -117.587857 90 941ft 0kts
18-Jul-19 13:15 34.059005 -117.587857 90 941ft 0kts
18-Jul-19 13:16 34.059005 -117.587852 86 941ft 0kts
18-Jul-19 13:17 34.058996 -117.586076 90 942ft 10kts
18-Jul-19 13:18 34.058995 -117.583213 88 942ft 5kts
18-Jul-19 13:19 34.058712 -117.582490 183 940ft 0kts
18-Jul-19 13:20 34.058062 -117.582535 179 939ft 16kts
18-Jul-19 13:21 34.056792 -117.602221 268 1038ft 169kts
18-Jul-19 13:22 34.058070 -117.667533 270 3742ft 210kts
18-Jul-19 13:23 34.066544 -117.737545 284 7017ft 218kts
18-Jul-19 13:24 34.093886 -117.808172 309 9628ft 243kts
18-Jul-19 13:25 34.143783 -117.866894 316 12561ft 258kts
18-Jul-19 13:26 34.199746 -117.924707 316 13970ft 267kts
18-Jul-19 13:27 34.261303 -117.977591 355 16370ft 283kts
18-Jul-19 13:28 34.333437 -117.939227 29 18652ft 292kts
18-Jul-19 13:29 34.375619 -117.865250 88 20756ft 287kts
18-Jul-19 13:30 34.381798 -117.768087 87 22693ft 294kts
18-Jul-19 13:31 34.389152 -117.663517 87 23693ft 332kts
18-Jul-19 13:32 34.422018 -117.550625 54 24305ft 388kts
18-Jul-19 13:33 34.489987 -117.440393 55 25662ft 411kts
18-Jul-19 13:34 34.560992 -117.323910 55 27072ft 419kts
18-Jul-19 13:35 34.635047 -117.201580 55 27088ft 418kts
18-Jul-19 13:36 34.708692 -117.079815 55 27087ft 420kts
18-Jul-19 13:37 34.782634 -116.957148 55 27060ft 429kts
18-Jul-19 13:38 34.857963 -116.831704 55 27027ft 435kts
18-Jul-19 13:39 34.933653 -116.704614 57 26834ft 430kts
18-Jul-19 13:40 35.002821 -116.581613 57 25757ft 403kts
18-Jul-19 13:41 35.069595 -116.462842 57 24462ft 394kts
18-Jul-19 13:42 35.141456 -116.355702 47 23370ft 377kts
18-Jul-19 13:43 35.221600 -116.255356 48 21481ft 387kts
18-Jul-19 13:44 35.299670 -116.157241 48 19710ft 367kts
18-Jul-19 13:45 35.371862 -116.066200 47 17623ft 364kts
18-Jul-19 13:46 35.442572 -115.976812 47 15524ft 361kts
18-Jul-19 13:47 35.516446 -115.883171 47 13411ft 355kts
18-Jul-19 13:48 35.582396 -115.799365 47 13102ft 327kts
18-Jul-19 13:49 35.645775 -115.718568 47 13096ft 327kts
18-Jul-19 13:50 35.709111 -115.637681 46 13090ft 327kts
18-Jul-19 13:51 35.780591 -115.573587 3 13073ft 327kts
18-Jul-19 13:52 35.871304 -115.569556 1 13070ft 326kts
18-Jul-19 13:53 35.961618 -115.558439 28 13036ft 327kts
18-Jul-19 13:54 36.003228 -115.465520 71 11115ft 311kts
18-Jul-19 13:55 36.029804 -115.370359 87 11024ft 288kts
18-Jul-19 13:56 36.023708 -115.271363 98 9400ft 290kts
18-Jul-19 13:57 36.016728 -115.174709 97 9053ft 280kts
18-Jul-19 13:58 36.010467 -115.081623 98 8050ft 251kts
18-Jul-19 13:59 36.005275 -114.994937 98 7976ft 250kts
18-Jul-19 14:00 36.001740 -114.909371 79 6765ft 253kts
18-Jul-19 14:01 36.059888 -114.880236 333 5918ft 254kts
18-Jul-19 14:02 36.081757 -114.951438 254 5248ft 226kts
18-Jul-19 14:03 36.073389 -115.034036 263 3410ft 255kts
18-Jul-19 14:04 36.073679 -115.116041 266 2158ft 194kts
18-Jul-19 14:05 36.074399 -115.149927 297 2119ft 13kts
18-Jul-19 14:06 36.077017 -115.152338 335 2124ft 13kts
18-Jul-19 14:07 36.079822 -115.153944 333 2124ft 11kts
18-Jul-19 14:08 36.082033 -115.152930 5 2115ft 2kts

Navigation Log

Ident Type
Flight plan parsing failed, navigation log unavailable